createdAt,value
2023-06-02T00:00:27.493Z,37.95
2023-06-02T00:01:27.558Z,37.95
2023-06-02T00:02:27.729Z,37.99
2023-06-02T00:03:27.733Z,37.99
2023-06-02T00:04:27.791Z,37.96
2023-06-02T00:05:27.903Z,37.99
2023-06-02T00:06:27.931Z,37.94
2023-06-02T00:07:28.005Z,37.98
2023-06-02T00:08:28.099Z,38.02
2023-06-02T00:09:28.134Z,37.96
2023-06-02T00:10:28.211Z,37.94
2023-06-02T00:11:28.293Z,38.00
2023-06-02T00:12:28.340Z,37.99
2023-06-02T00:13:28.384Z,37.97
2023-06-02T00:14:28.829Z,37.95
2023-06-02T00:15:28.530Z,37.97
2023-06-02T00:16:28.635Z,37.99
2023-06-02T00:17:28.684Z,37.95
2023-06-02T00:18:28.760Z,37.97
2023-06-02T00:19:28.821Z,37.97
2023-06-02T00:20:28.931Z,37.95
2023-06-02T00:21:29.036Z,37.99
2023-06-02T00:22:29.062Z,37.95
2023-06-02T00:23:29.142Z,37.97
2023-06-02T00:24:29.210Z,37.96
2023-06-02T00:25:29.293Z,37.96
2023-06-02T00:26:29.322Z,37.98
2023-06-02T00:27:29.371Z,37.96
2023-06-02T00:28:29.461Z,37.99
2023-06-02T00:29:29.504Z,38.00
2023-06-02T00:30:29.621Z,37.99
2023-06-02T00:31:29.683Z,37.99
2023-06-02T00:32:29.708Z,37.95
2023-06-02T00:33:29.799Z,38.02
2023-06-02T00:34:29.831Z,38.00
2023-06-02T00:35:29.917Z,37.97
2023-06-02T00:36:29.986Z,37.97
2023-06-02T00:37:30.069Z,37.97
2023-06-02T00:38:30.148Z,37.99
2023-06-02T00:39:30.218Z,38.01
2023-06-02T00:40:30.319Z,37.99
2023-06-02T00:41:30.387Z,38.00
2023-06-02T00:42:30.450Z,38.00
2023-06-02T00:43:30.520Z,38.01
2023-06-02T00:44:30.709Z,38.05
2023-06-02T00:45:30.682Z,38.04
2023-06-02T00:46:30.765Z,38.00
2023-06-02T00:47:30.826Z,38.04
2023-06-02T00:48:30.854Z,38.02
2023-06-02T00:49:30.918Z,38.01
2023-06-02T00:50:31.013Z,37.99
2023-06-02T00:51:31.056Z,38.02
2023-06-02T00:52:31.130Z,38.00
2023-06-02T00:53:31.208Z,38.02
2023-06-02T00:54:31.270Z,38.01
2023-06-02T00:55:31.337Z,38.04
2023-06-02T00:56:31.385Z,38.02
2023-06-02T00:57:31.435Z,38.06
2023-06-02T00:58:31.494Z,37.99
2023-06-02T00:59:31.577Z,38.01
2023-06-02T01:00:31.638Z,37.99
2023-06-02T01:01:31.786Z,38.04
2023-06-02T01:02:31.838Z,38.05
2023-06-02T01:03:31.863Z,38.04
2023-06-02T01:04:31.908Z,38.00
2023-06-02T01:05:31.962Z,38.04
2023-06-02T01:06:32.019Z,38.04
2023-06-02T01:07:32.072Z,38.04
2023-06-02T01:08:32.125Z,38.04
2023-06-02T01:09:32.174Z,38.05
2023-06-02T01:10:32.231Z,38.05
2023-06-02T01:11:32.283Z,38.05
2023-06-02T01:12:32.317Z,38.03
2023-06-02T01:13:32.343Z,38.06
2023-06-02T01:14:32.389Z,38.10
2023-06-02T01:15:32.445Z,38.02
2023-06-02T01:16:32.534Z,38.03
2023-06-02T01:17:32.668Z,38.06
2023-06-02T01:18:32.666Z,38.05
2023-06-02T01:19:32.757Z,38.04
2023-06-02T01:20:32.818Z,38.08
2023-06-02T01:21:32.909Z,38.01
2023-06-02T01:22:32.968Z,38.12
2023-06-02T01:23:33.006Z,38.05
2023-06-02T01:24:33.916Z,38.05
2023-06-02T01:25:33.099Z,38.05
2023-06-02T01:26:33.152Z,38.08
2023-06-02T01:27:33.235Z,38.06
2023-06-02T01:28:33.307Z,38.02
2023-06-02T01:29:33.392Z,38.06
2023-06-02T01:30:33.474Z,38.10
2023-06-02T01:31:33.530Z,38.10
2023-06-02T01:32:33.635Z,38.13
2023-06-02T01:33:33.752Z,38.09
2023-06-02T01:34:33.730Z,38.06
2023-06-02T01:35:33.804Z,38.07
2023-06-02T01:36:33.863Z,38.09
2023-06-02T01:37:33.913Z,38.08
2023-06-02T01:38:33.986Z,38.07
2023-06-02T01:39:34.034Z,38.10
2023-06-02T01:40:34.099Z,38.08
2023-06-02T01:41:34.159Z,38.10
2023-06-02T01:42:34.218Z,38.05
2023-06-02T01:43:34.261Z,38.07
2023-06-02T01:44:34.312Z,38.14
2023-06-02T01:45:34.368Z,38.09
2023-06-02T01:46:34.381Z,38.07
2023-06-02T01:47:34.425Z,38.08
2023-06-02T01:48:34.445Z,38.11
2023-06-02T01:49:34.437Z,38.15
2023-06-02T01:50:34.469Z,38.12
2023-06-02T01:51:34.554Z,38.10
2023-06-02T01:52:34.619Z,38.17
2023-06-02T01:53:34.687Z,38.08
2023-06-02T01:54:34.741Z,38.12
2023-06-02T01:55:34.804Z,38.10
2023-06-02T01:56:34.876Z,38.10
2023-06-02T01:57:34.945Z,38.12
2023-06-02T01:58:35.010Z,38.17
2023-06-02T01:59:35.055Z,38.11
2023-06-02T02:00:35.106Z,38.18
2023-06-02T02:01:35.259Z,38.07
2023-06-02T02:02:35.276Z,38.12
2023-06-02T02:03:35.435Z,38.11
2023-06-02T02:04:35.417Z,38.16
2023-06-02T02:05:35.479Z,38.13
2023-06-02T02:06:35.523Z,38.13
2023-06-02T02:07:35.670Z,38.11
2023-06-02T02:08:35.672Z,38.12
2023-06-02T02:09:35.743Z,38.11
2023-06-02T02:10:35.797Z,38.10
2023-06-02T02:11:35.841Z,38.11
2023-06-02T02:12:35.929Z,38.12
2023-06-02T02:13:35.938Z,38.20
2023-06-02T02:14:35.964Z,38.17
2023-06-02T02:15:35.972Z,38.14
2023-06-02T02:16:36.045Z,38.13
2023-06-02T02:17:36.141Z,38.12
2023-06-02T02:18:36.022Z,38.12
2023-06-02T02:19:36.044Z,38.13
2023-06-02T02:20:36.050Z,38.12
2023-06-02T02:21:36.133Z,38.16
2023-06-02T02:22:36.113Z,38.11
2023-06-02T02:23:36.129Z,38.16
2023-06-02T02:24:36.190Z,38.13
2023-06-02T02:25:36.216Z,38.15
2023-06-02T02:26:36.277Z,38.09
2023-06-02T02:27:36.322Z,38.13
2023-06-02T02:28:36.393Z,38.09
2023-06-02T02:29:36.430Z,38.13
2023-06-02T02:30:36.461Z,38.15
2023-06-02T02:31:36.578Z,38.16
2023-06-02T02:32:36.593Z,38.15
2023-06-02T02:33:36.607Z,38.21
2023-06-02T02:34:36.649Z,38.15
2023-06-02T02:35:36.739Z,38.15
2023-06-02T02:36:36.790Z,38.19
2023-06-02T02:37:45.905Z,38.16
2023-06-02T02:38:37.851Z,38.18
2023-06-02T02:39:36.853Z,38.19
2023-06-02T02:40:36.857Z,38.15
2023-06-02T02:41:36.867Z,38.18
2023-06-02T02:42:36.866Z,38.19
2023-06-02T02:43:36.880Z,38.17
2023-06-02T02:44:36.876Z,38.18
2023-06-02T02:45:36.929Z,38.14
2023-06-02T02:46:36.880Z,38.20
2023-06-02T02:47:36.953Z,38.17
2023-06-02T02:48:36.893Z,38.15
2023-06-02T02:49:36.895Z,38.20
2023-06-02T02:50:37.536Z,38.15
2023-06-02T02:51:36.917Z,38.16
2023-06-02T02:52:36.942Z,38.20
2023-06-02T02:53:36.942Z,38.21
2023-06-02T02:54:36.932Z,38.16
2023-06-02T02:55:36.946Z,38.16
2023-06-02T02:56:36.975Z,38.16
2023-06-02T02:57:36.962Z,38.17
2023-06-02T02:58:36.971Z,38.16
2023-06-02T02:59:37.000Z,38.19
2023-06-02T03:00:37.007Z,38.17
2023-06-02T03:01:37.060Z,38.20
2023-06-02T03:02:37.050Z,38.18
2023-06-02T03:03:37.021Z,38.18
2023-06-02T03:04:37.045Z,38.17
2023-06-02T03:05:37.085Z,38.20
2023-06-02T03:06:37.133Z,38.18
2023-06-02T03:07:37.181Z,38.14
2023-06-02T03:08:37.201Z,38.20
2023-06-02T03:09:37.207Z,38.21
2023-06-02T03:10:37.228Z,38.18
2023-06-02T03:11:37.249Z,38.21
2023-06-02T03:12:37.269Z,38.22
2023-06-02T03:13:37.297Z,38.18
2023-06-02T03:14:37.318Z,38.18
2023-06-02T03:15:37.367Z,38.18
2023-06-02T03:16:37.412Z,38.18
2023-06-02T03:17:37.471Z,38.23
2023-06-02T03:18:37.443Z,38.18
2023-06-02T03:19:37.465Z,38.20
2023-06-02T03:20:37.487Z,38.22
2023-06-02T03:21:37.569Z,38.22
2023-06-02T03:22:37.583Z,38.23
2023-06-02T03:23:37.668Z,38.19
2023-06-02T03:24:37.700Z,38.18
2023-06-02T03:25:37.749Z,38.22
2023-06-02T03:26:37.814Z,38.19
2023-06-02T03:27:37.830Z,38.21
2023-06-02T03:28:37.915Z,38.17
2023-06-02T03:29:37.948Z,38.21
2023-06-02T03:30:38.004Z,38.18
2023-06-02T03:31:38.145Z,38.23
2023-06-02T03:32:38.163Z,38.18
2023-06-02T03:33:38.200Z,38.19
2023-06-02T03:34:38.276Z,38.17
2023-06-02T03:35:38.347Z,38.21
2023-06-02T03:36:38.369Z,38.23
2023-06-02T03:37:38.390Z,38.18
2023-06-02T03:38:38.436Z,38.22
2023-06-02T03:39:38.489Z,38.18
2023-06-02T03:40:38.541Z,38.19
2023-06-02T03:41:38.563Z,38.18
2023-06-02T03:42:38.598Z,38.22
2023-06-02T03:43:38.614Z,38.19
2023-06-02T03:44:38.655Z,38.21
2023-06-02T03:45:38.665Z,38.19
2023-06-02T03:46:38.695Z,38.23
2023-06-02T03:47:38.758Z,38.24
2023-06-02T03:48:38.733Z,38.22
2023-06-02T03:49:38.777Z,38.21
2023-06-02T03:50:38.793Z,38.26
2023-06-02T03:51:38.809Z,38.23
2023-06-02T03:52:38.845Z,38.23
2023-06-02T03:53:38.876Z,38.21
2023-06-02T03:54:38.894Z,38.19
2023-06-02T03:55:38.929Z,38.21
2023-06-02T03:56:38.957Z,38.19
2023-06-02T03:57:39.006Z,38.20
2023-06-02T03:58:39.022Z,38.24
2023-06-02T03:59:39.057Z,38.19
2023-06-02T04:00:39.079Z,38.20
2023-06-02T04:01:39.128Z,38.22
2023-06-02T04:02:39.179Z,38.24
2023-06-02T04:03:39.212Z,38.20
2023-06-02T04:04:39.328Z,38.18
2023-06-02T04:05:39.304Z,38.17
2023-06-02T04:06:39.351Z,38.23
2023-06-02T04:07:39.389Z,38.21
2023-06-02T04:08:39.443Z,38.19
2023-06-02T04:09:39.480Z,38.23
2023-06-02T04:10:39.557Z,38.23
2023-06-02T04:11:39.581Z,38.18
2023-06-02T04:12:39.638Z,38.17
2023-06-02T04:13:39.628Z,38.24
2023-06-02T04:14:39.657Z,38.19
2023-06-02T04:15:39.688Z,38.22
2023-06-02T04:16:39.778Z,38.20
2023-06-02T04:17:39.739Z,38.19
2023-06-02T04:18:39.744Z,38.19
2023-06-02T04:19:39.756Z,38.18
2023-06-02T04:20:39.787Z,38.17
2023-06-02T04:21:39.819Z,38.20
2023-06-02T04:22:39.846Z,38.24
2023-06-02T04:23:39.897Z,38.16
2023-06-02T04:24:39.916Z,38.22
2023-06-02T04:25:39.933Z,38.19
2023-06-02T04:26:39.956Z,38.20
2023-06-02T04:27:39.980Z,38.14
2023-06-02T04:28:39.996Z,38.14
2023-06-02T04:29:39.984Z,38.15
2023-06-02T04:30:39.993Z,38.13
2023-06-02T04:31:40.014Z,38.12
2023-06-02T04:32:40.060Z,38.13
2023-06-02T04:33:40.011Z,38.06
2023-06-02T04:34:40.028Z,38.07
2023-06-02T04:35:40.038Z,38.07
2023-06-02T04:36:40.045Z,38.07
2023-06-02T04:37:40.262Z,38.07
2023-06-02T04:38:40.123Z,38.07
2023-06-02T04:39:40.197Z,38.03
2023-06-02T04:40:40.215Z,37.98
2023-06-02T04:41:40.212Z,38.01
2023-06-02T04:42:40.233Z,37.96
2023-06-02T04:43:40.253Z,37.94
2023-06-02T04:44:40.295Z,37.95
2023-06-02T04:45:40.334Z,37.97
2023-06-02T04:46:40.420Z,37.96
2023-06-02T04:47:40.530Z,37.92
2023-06-02T04:48:40.518Z,37.87
2023-06-02T04:49:40.594Z,37.91
2023-06-02T04:50:40.653Z,37.88
2023-06-02T04:51:40.716Z,37.89
2023-06-02T04:52:40.784Z,37.86
2023-06-02T04:53:40.851Z,37.85
2023-06-02T04:54:40.905Z,37.81
2023-06-02T04:55:40.986Z,37.82
2023-06-02T04:56:41.052Z,37.84
2023-06-02T04:57:41.124Z,37.81
2023-06-02T04:58:41.163Z,37.75
2023-06-02T04:59:41.237Z,37.79
2023-06-02T05:00:41.302Z,37.81
2023-06-02T05:01:41.411Z,37.81
2023-06-02T05:02:41.484Z,37.79
2023-06-02T05:03:41.520Z,37.78
2023-06-02T05:04:41.575Z,37.81
2023-06-02T05:05:41.646Z,37.79
2023-06-02T05:06:41.722Z,37.76
2023-06-02T05:07:41.800Z,37.74
2023-06-02T05:08:41.860Z,37.70
2023-06-02T05:09:41.950Z,37.69
2023-06-02T05:10:42.017Z,37.66
2023-06-02T05:11:42.075Z,37.65
2023-06-02T05:12:42.146Z,37.70
2023-06-02T05:13:42.207Z,37.70
2023-06-02T05:14:42.281Z,37.69
2023-06-02T05:15:42.547Z,37.60
2023-06-02T05:16:42.504Z,37.56
2023-06-02T05:17:42.513Z,37.51
2023-06-02T05:18:42.555Z,37.35
2023-06-02T05:19:42.632Z,36.29
2023-06-02T05:20:42.692Z,36.03
2023-06-02T05:21:42.779Z,35.66
2023-06-02T05:22:42.789Z,35.18
2023-06-02T05:23:42.849Z,35.41
2023-06-02T05:24:42.941Z,35.12
2023-06-02T05:25:42.965Z,35.09
2023-06-02T05:26:42.973Z,35.25
2023-06-02T05:27:43.019Z,35.05
2023-06-02T05:28:43.033Z,34.70
2023-06-02T05:29:43.048Z,34.70
2023-06-02T05:30:43.077Z,34.24
2023-06-02T05:31:43.209Z,34.10
2023-06-02T05:32:43.172Z,34.38
2023-06-02T05:33:43.145Z,34.43
2023-06-02T05:34:43.171Z,34.55
2023-06-02T05:35:43.201Z,34.64
2023-06-02T05:36:43.224Z,34.65
2023-06-02T05:37:43.222Z,34.89
2023-06-02T05:38:43.278Z,35.70
2023-06-02T05:39:43.329Z,35.25
2023-06-02T05:40:43.387Z,35.37
2023-06-02T05:41:43.433Z,34.97
2023-06-02T05:42:44.042Z,35.68
2023-06-02T05:43:43.572Z,36.01
2023-06-02T05:44:43.655Z,35.77
2023-06-02T05:45:43.770Z,35.95
2023-06-02T05:46:43.814Z,36.09
2023-06-02T05:47:43.957Z,35.65
2023-06-02T05:48:43.964Z,35.75
2023-06-02T05:49:44.018Z,35.93
2023-06-02T05:50:44.093Z,35.82
2023-06-02T05:51:44.160Z,35.65
2023-06-02T05:52:44.212Z,35.10
2023-06-02T05:53:44.247Z,35.84
2023-06-02T05:54:44.309Z,35.52
2023-06-02T05:55:44.384Z,35.23
2023-06-02T05:56:44.435Z,34.81
2023-06-02T05:57:44.479Z,35.75
2023-06-02T05:58:44.531Z,35.72
2023-06-02T05:59:44.585Z,35.63
2023-06-02T06:00:44.645Z,35.71
2023-06-02T06:01:44.698Z,35.59
2023-06-02T06:02:44.795Z,35.69
2023-06-02T06:03:45.629Z,35.74
2023-06-02T06:04:44.826Z,35.75
2023-06-02T06:05:44.864Z,35.80
2023-06-02T06:06:44.903Z,35.80
2023-06-02T06:07:44.968Z,35.78
2023-06-02T06:08:44.990Z,35.85
2023-06-02T06:09:45.010Z,35.65
2023-06-02T06:10:45.052Z,35.75
2023-06-02T06:11:45.086Z,35.71
2023-06-02T06:12:45.168Z,35.72
2023-06-02T06:13:45.126Z,35.73
2023-06-02T06:14:45.156Z,35.63
2023-06-02T06:15:45.203Z,35.66
2023-06-02T06:16:45.222Z,35.71
2023-06-02T06:17:45.249Z,35.65
2023-06-02T06:18:45.256Z,35.71
2023-06-02T06:19:45.286Z,35.66
2023-06-02T06:20:46.050Z,35.67
2023-06-02T06:21:45.357Z,35.63
2023-06-02T06:22:45.361Z,35.66
2023-06-02T06:23:45.363Z,35.62
2023-06-02T06:24:45.391Z,35.41
2023-06-02T06:25:45.480Z,35.57
2023-06-02T06:26:45.542Z,35.60
2023-06-02T06:27:45.574Z,35.65
2023-06-02T06:28:45.597Z,35.69
2023-06-02T06:29:45.613Z,35.66
2023-06-02T06:30:45.640Z,35.69
2023-06-02T06:31:45.858Z,35.73
2023-06-02T06:32:45.853Z,35.76
2023-06-02T06:33:45.828Z,35.82
2023-06-02T06:34:45.852Z,35.81
2023-06-02T06:35:46.551Z,35.85
2023-06-02T06:36:45.894Z,35.92
2023-06-02T06:37:45.917Z,35.97
2023-06-02T06:38:45.944Z,36.00
2023-06-02T06:39:45.913Z,36.04
2023-06-02T06:40:45.962Z,36.08
2023-06-02T06:41:46.043Z,36.11
2023-06-02T06:42:46.113Z,36.15
2023-06-02T06:43:46.205Z,36.15
2023-06-02T06:44:46.294Z,36.20
2023-06-02T06:45:46.384Z,36.26
2023-06-02T06:46:46.482Z,36.33
2023-06-02T06:47:46.618Z,36.33
2023-06-02T06:48:47.876Z,36.39
2023-06-02T06:49:46.658Z,36.42
2023-06-02T06:50:46.666Z,36.44
2023-06-02T06:51:46.662Z,36.43
2023-06-02T06:52:46.637Z,36.51
2023-06-02T06:53:46.645Z,36.54
2023-06-02T06:54:46.636Z,36.52
2023-06-02T06:55:46.635Z,36.55
2023-06-02T06:56:47.576Z,36.62
2023-06-02T06:57:46.627Z,36.67
2023-06-02T06:58:46.620Z,36.62
2023-06-02T06:59:47.681Z,36.76
2023-06-02T07:00:46.616Z,36.71
2023-06-02T07:01:47.604Z,36.67
2023-06-02T07:02:46.692Z,36.69
2023-06-02T07:03:46.699Z,36.71
2023-06-02T07:04:46.591Z,36.66
2023-06-02T07:05:46.593Z,36.68
2023-06-02T07:06:46.583Z,36.68
2023-06-02T07:07:46.609Z,36.67
2023-06-02T07:08:46.681Z,36.74
2023-06-02T07:09:46.753Z,36.79
2023-06-02T07:10:46.810Z,36.73
2023-06-02T07:11:46.867Z,36.84
2023-06-02T07:12:46.927Z,36.93
2023-06-02T07:13:46.982Z,36.93
2023-06-02T07:14:47.034Z,37.03
2023-06-02T07:15:47.112Z,37.16
2023-06-02T07:16:47.248Z,37.21
2023-06-02T07:17:47.244Z,37.17
2023-06-02T07:18:47.253Z,37.15
2023-06-02T07:19:47.433Z,37.05
2023-06-02T07:20:47.351Z,37.04
2023-06-02T07:21:47.435Z,36.96
2023-06-02T07:22:47.465Z,36.82
2023-06-02T07:23:47.999Z,36.73
2023-06-02T07:24:47.579Z,36.46
2023-06-02T07:25:47.648Z,36.39
2023-06-02T07:26:47.693Z,36.38
2023-06-02T07:27:47.748Z,36.44
2023-06-02T07:28:47.792Z,36.46
2023-06-02T07:29:48.576Z,36.53
2023-06-02T07:30:54.391Z,36.65
2023-06-02T07:31:48.957Z,36.67
2023-06-02T07:32:47.941Z,36.77
2023-06-02T07:33:47.915Z,36.82
2023-06-02T07:34:47.896Z,36.86
2023-06-02T07:35:47.897Z,37.01
2023-06-02T07:36:47.886Z,37.10
2023-06-02T07:37:47.958Z,37.27
2023-06-02T07:38:47.873Z,37.27
2023-06-02T07:39:47.868Z,37.40
2023-06-02T07:40:47.863Z,37.48
2023-06-02T07:41:47.885Z,37.56
2023-06-02T07:42:48.502Z,37.65
2023-06-02T07:43:47.979Z,37.60
2023-06-02T07:44:48.004Z,37.55
2023-06-02T07:45:48.050Z,37.43
2023-06-02T07:46:48.094Z,37.46
2023-06-02T07:47:48.164Z,37.30
2023-06-02T07:48:48.154Z,37.47
2023-06-02T07:49:48.216Z,37.51
2023-06-02T07:50:48.242Z,37.63
2023-06-02T07:51:48.284Z,37.61
2023-06-02T07:52:48.325Z,37.62
2023-06-02T07:53:48.373Z,37.72
2023-06-02T07:54:48.414Z,37.70
2023-06-02T07:55:48.547Z,38.01
2023-06-02T07:56:48.485Z,37.98
2023-06-02T07:57:48.531Z,38.09
2023-06-02T07:58:48.580Z,38.14
2023-06-02T07:59:48.605Z,38.14
2023-06-02T08:00:48.634Z,38.15
2023-06-02T08:01:48.721Z,38.27
2023-06-02T08:02:48.868Z,38.31
2023-06-02T08:03:48.898Z,38.12
2023-06-02T08:04:48.895Z,37.98
2023-06-02T08:05:48.828Z,38.08
2023-06-02T08:06:48.851Z,38.22
2023-06-02T08:07:48.888Z,38.28
2023-06-02T08:08:48.930Z,38.30
2023-06-02T08:09:48.964Z,38.33
2023-06-02T08:10:48.997Z,38.28
2023-06-02T08:11:49.029Z,38.46
2023-06-02T08:12:49.069Z,38.40
2023-06-02T08:13:49.100Z,38.25
2023-06-02T08:14:49.128Z,38.26
2023-06-02T08:16:02.366Z,38.35
2023-06-02T08:17:49.266Z,37.13
2023-06-02T08:18:49.164Z,37.02
2023-06-02T08:19:49.112Z,36.72
2023-06-02T08:20:50.959Z,36.63
2023-06-02T08:21:49.185Z,36.69
2023-06-02T08:22:49.086Z,36.40
2023-06-02T08:23:49.073Z,35.97
2023-06-02T08:24:49.065Z,35.27
2023-06-02T08:25:49.075Z,33.14
2023-06-02T08:26:49.055Z,34.71
2023-06-02T08:27:50.995Z,32.95
2023-06-02T08:28:49.602Z,32.10
2023-06-02T08:29:49.013Z,32.72
2023-06-02T08:30:49.022Z,32.99
2023-06-02T08:31:49.117Z,33.23
2023-06-02T08:32:49.008Z,33.25
2023-06-02T08:33:49.010Z,32.87
2023-06-02T08:34:48.964Z,32.59
2023-06-02T08:35:49.037Z,32.89
2023-06-02T08:36:49.589Z,32.80
2023-06-02T08:37:48.941Z,32.78
2023-06-02T08:38:48.937Z,32.92
2023-06-02T08:39:48.913Z,32.70
2023-06-02T08:40:49.040Z,33.15
2023-06-02T08:41:48.904Z,32.36
2023-06-02T08:42:48.917Z,33.26
2023-06-02T08:43:48.926Z,33.07
2023-06-02T08:44:49.388Z,33.07
2023-06-02T08:45:48.865Z,33.51
2023-06-02T08:46:49.070Z,33.56
2023-06-02T08:47:48.945Z,33.15
2023-06-02T08:48:48.915Z,32.77
2023-06-02T08:49:48.814Z,32.66
2023-06-02T08:50:48.822Z,31.63
2023-06-02T08:51:49.532Z,31.94
2023-06-02T08:52:48.910Z,32.15
2023-06-02T08:53:48.791Z,32.14
2023-06-02T08:54:48.783Z,32.14
2023-06-02T08:55:48.797Z,31.69
2023-06-02T08:56:48.876Z,31.82
2023-06-02T08:57:48.747Z,31.71
2023-06-02T08:58:48.739Z,32.46
2023-06-02T08:59:48.732Z,32.74
2023-06-02T09:00:48.726Z,33.13
2023-06-02T09:01:48.808Z,33.36
2023-06-02T09:02:48.855Z,33.42
2023-06-02T09:03:48.964Z,33.47
2023-06-02T09:04:48.794Z,33.40
2023-06-02T09:05:48.712Z,32.75
2023-06-02T09:06:48.711Z,33.15
2023-06-02T09:07:48.701Z,33.24
2023-06-02T09:08:48.697Z,32.61
2023-06-02T09:09:48.686Z,32.27
2023-06-02T09:10:48.681Z,32.04
2023-06-02T09:11:48.689Z,32.09
2023-06-02T09:12:48.661Z,31.95
2023-06-02T09:13:48.657Z,32.08
2023-06-02T09:14:48.635Z,31.88
2023-06-02T09:15:48.637Z,31.88
2023-06-02T09:16:48.686Z,31.95
2023-06-02T09:17:48.697Z,31.86
2023-06-02T09:18:48.603Z,31.79
2023-06-02T09:19:48.727Z,31.63
2023-06-02T09:20:48.567Z,31.66
2023-06-02T09:21:48.599Z,31.34
2023-06-02T09:22:55.432Z,31.07
2023-06-02T09:23:59.957Z,30.94
2023-06-02T09:24:49.551Z,30.76
2023-06-02T09:25:48.513Z,30.55
2023-06-02T09:26:48.509Z,30.38
2023-06-02T09:27:50.053Z,30.36
2023-06-02T09:28:48.463Z,30.36
2023-06-02T09:29:48.462Z,30.03
2023-06-02T09:30:48.531Z,29.88
2023-06-02T09:31:48.514Z,29.51
2023-06-02T09:32:48.460Z,29.63
2023-06-02T09:33:49.138Z,29.30
2023-06-02T09:34:48.421Z,29.13
2023-06-02T09:35:48.404Z,29.06
2023-06-02T09:36:48.393Z,29.06
2023-06-02T09:37:48.390Z,28.91
2023-06-02T09:38:48.370Z,28.58
2023-06-02T09:39:48.366Z,28.49
2023-06-02T09:40:48.347Z,28.39
2023-06-02T09:41:48.429Z,28.14
2023-06-02T09:42:48.334Z,28.13
2023-06-02T09:43:48.327Z,28.17
2023-06-02T09:44:48.301Z,28.15
2023-06-02T09:45:48.474Z,28.07
2023-06-02T09:46:48.380Z,27.70
2023-06-02T09:47:48.474Z,27.35
2023-06-02T09:48:48.399Z,26.98
2023-06-02T09:49:48.247Z,27.05
2023-06-02T09:50:48.246Z,27.02
2023-06-02T09:51:48.215Z,27.12
2023-06-02T09:52:48.203Z,27.06
2023-06-02T09:53:48.183Z,27.05
2023-06-02T09:54:48.235Z,27.08
2023-06-02T09:55:48.177Z,27.01
2023-06-02T09:56:48.176Z,26.74
2023-06-02T09:57:48.149Z,26.65
2023-06-02T09:58:48.131Z,26.61
2023-06-02T09:59:48.109Z,26.60
2023-06-02T10:00:48.113Z,26.67
2023-06-02T10:01:48.102Z,26.55
2023-06-02T10:02:48.201Z,26.68
2023-06-02T10:03:48.176Z,26.55
2023-06-02T10:04:48.058Z,26.69
2023-06-02T10:05:48.064Z,26.62
2023-06-02T10:06:48.088Z,26.31
2023-06-02T10:07:48.085Z,26.42
2023-06-02T10:08:48.086Z,26.33
2023-06-02T10:09:48.098Z,26.17
2023-06-02T10:10:48.108Z,26.07
2023-06-02T10:11:48.154Z,25.96
2023-06-02T10:12:48.164Z,25.83
2023-06-02T10:13:48.157Z,25.87
2023-06-02T10:14:48.177Z,25.81
2023-06-02T10:15:48.278Z,25.77
2023-06-02T10:16:48.216Z,27.40
2023-06-02T10:17:48.328Z,27.72
2023-06-02T10:18:48.273Z,28.11
2023-06-02T10:19:48.289Z,28.55
2023-06-02T10:20:48.351Z,28.39
2023-06-02T10:21:48.375Z,28.71
2023-06-02T10:22:48.390Z,29.29
2023-06-02T10:23:48.415Z,29.11
2023-06-02T10:24:48.363Z,29.41
2023-06-02T10:25:48.372Z,30.18
2023-06-02T10:26:48.403Z,29.69
2023-06-02T10:27:48.403Z,30.90
2023-06-02T10:28:48.407Z,30.42
2023-06-02T10:29:48.442Z,30.06
2023-06-02T10:30:48.474Z,28.96
2023-06-02T10:31:48.523Z,29.31
2023-06-02T10:32:48.470Z,30.88
2023-06-02T10:33:48.464Z,30.78
2023-06-02T10:34:48.448Z,30.85
2023-06-02T10:35:48.457Z,30.50
2023-06-02T10:36:48.489Z,30.85
2023-06-02T10:37:48.527Z,30.62
2023-06-02T10:38:48.513Z,30.26
2023-06-02T10:39:48.520Z,31.14
2023-06-02T10:40:48.536Z,31.78
2023-06-02T10:41:48.553Z,31.64
2023-06-02T10:42:48.563Z,31.45
2023-06-02T10:43:48.570Z,30.94
2023-06-02T10:44:48.612Z,30.35
2023-06-02T10:45:48.600Z,30.31
2023-06-02T10:46:48.735Z,29.51
2023-06-02T10:47:48.669Z,29.90
2023-06-02T10:48:48.655Z,30.01
2023-06-02T10:49:51.046Z,28.82
2023-06-02T10:50:48.664Z,29.11
2023-06-02T10:51:48.637Z,30.37
2023-06-02T10:52:48.608Z,31.19
2023-06-02T10:53:48.591Z,31.54
2023-06-02T10:54:48.578Z,31.05
2023-06-02T10:55:49.611Z,29.44
2023-06-02T10:56:48.579Z,28.89
2023-06-02T10:57:48.532Z,28.79
2023-06-02T10:58:48.527Z,27.90
2023-06-02T10:59:48.505Z,28.21
2023-06-02T11:00:48.607Z,27.42
2023-06-02T11:01:49.494Z,27.47
2023-06-02T11:02:48.556Z,26.94
2023-06-02T11:03:48.492Z,27.58
2023-06-02T11:04:48.449Z,27.53
2023-06-02T11:05:48.437Z,27.82
2023-06-02T11:06:48.423Z,28.24
2023-06-02T11:07:48.400Z,28.56
2023-06-02T11:08:48.382Z,28.90
2023-06-02T11:09:48.388Z,28.88
2023-06-02T11:10:48.398Z,29.02
2023-06-02T11:11:48.350Z,29.17
2023-06-02T11:12:48.313Z,29.25
2023-06-02T11:13:48.313Z,29.25
2023-06-02T11:14:48.294Z,29.22
2023-06-02T11:15:48.283Z,29.29
2023-06-02T11:16:48.285Z,29.31
2023-06-02T11:17:48.318Z,29.41
2023-06-02T11:18:48.235Z,29.45
2023-06-02T11:19:48.214Z,29.46
2023-06-02T11:20:48.196Z,29.55
2023-06-02T11:21:48.191Z,29.55
2023-06-02T11:22:48.334Z,29.56
2023-06-02T11:23:48.146Z,29.59
2023-06-02T11:24:48.122Z,29.67
2023-06-02T11:25:48.104Z,29.75
2023-06-02T11:26:48.093Z,29.78
2023-06-02T11:27:48.318Z,29.80
2023-06-02T11:28:48.061Z,29.85
2023-06-02T11:29:48.030Z,29.89
2023-06-02T11:30:48.062Z,29.89
2023-06-02T11:31:48.089Z,29.91
2023-06-02T11:32:48.168Z,29.97
2023-06-02T11:33:48.128Z,30.03
2023-06-02T11:34:48.151Z,30.06
2023-06-02T11:35:48.178Z,30.13
2023-06-02T11:36:48.220Z,30.13
2023-06-02T11:37:48.235Z,30.18
2023-06-02T11:38:48.283Z,30.22
2023-06-02T11:39:48.288Z,30.27
2023-06-02T11:40:48.329Z,30.31
2023-06-02T11:41:48.363Z,30.30
2023-06-02T11:42:48.399Z,30.30
2023-06-02T11:43:48.505Z,30.36
2023-06-02T11:44:48.487Z,30.39
2023-06-02T11:45:48.523Z,30.41
2023-06-02T11:46:48.570Z,30.47
2023-06-02T11:47:48.641Z,30.48
2023-06-02T11:48:48.665Z,30.51
2023-06-02T11:49:48.682Z,30.50
2023-06-02T11:50:48.728Z,30.55
2023-06-02T11:51:48.820Z,30.53
2023-06-02T11:52:48.819Z,30.61
2023-06-02T11:53:48.867Z,30.68
2023-06-02T11:54:48.971Z,30.64
2023-06-02T11:55:49.134Z,30.61
2023-06-02T11:56:49.007Z,30.68
2023-06-02T11:57:49.050Z,30.69
2023-06-02T11:58:49.095Z,30.69
2023-06-02T11:59:49.133Z,30.76
2023-06-02T12:00:49.193Z,30.83
2023-06-02T12:01:49.257Z,30.79
2023-06-02T12:02:49.381Z,30.79
2023-06-02T12:03:49.431Z,30.87
2023-06-02T12:04:49.493Z,30.84
2023-06-02T12:05:49.704Z,30.91
2023-06-02T12:06:49.505Z,30.88
2023-06-02T12:07:49.546Z,30.90
2023-06-02T12:08:49.608Z,30.95
2023-06-02T12:09:49.640Z,30.93
2023-06-02T12:10:49.696Z,30.95
2023-06-02T12:11:49.762Z,30.95
2023-06-02T12:12:49.853Z,30.95
2023-06-02T12:13:49.844Z,30.98
2023-06-02T12:14:49.910Z,30.97
2023-06-02T12:15:49.959Z,31.02
2023-06-02T12:16:50.062Z,31.04
2023-06-02T12:17:50.088Z,31.03
2023-06-02T12:18:50.146Z,31.09
2023-06-02T12:19:50.173Z,31.08
2023-06-02T12:20:50.243Z,31.03
2023-06-02T12:21:50.305Z,31.08
2023-06-02T12:22:50.355Z,31.09
2023-06-02T12:23:50.428Z,31.10
2023-06-02T12:24:50.452Z,31.11
2023-06-02T12:25:50.509Z,31.18
2023-06-02T12:26:50.574Z,31.16
2023-06-02T12:27:50.616Z,31.21
2023-06-02T12:28:50.701Z,31.27
2023-06-02T12:29:50.736Z,31.36
2023-06-02T12:30:50.838Z,31.68
2023-06-02T12:31:50.853Z,32.57
2023-06-02T12:32:50.946Z,31.93
2023-06-02T12:33:50.978Z,32.62
2023-06-02T12:34:51.040Z,32.55
2023-06-02T12:35:51.090Z,32.20
2023-06-02T12:36:51.161Z,32.03
2023-06-02T12:37:51.215Z,32.26
2023-06-02T12:38:51.275Z,32.24
2023-06-02T12:39:51.351Z,31.92
2023-06-02T12:40:51.399Z,31.69
2023-06-02T12:41:51.481Z,31.77
2023-06-02T12:42:51.525Z,31.94
2023-06-02T12:43:51.581Z,31.93
2023-06-02T12:44:51.633Z,31.81
2023-06-02T12:45:51.698Z,31.79
2023-06-02T12:46:51.796Z,31.83
2023-06-02T12:47:51.857Z,31.76
2023-06-02T12:48:51.870Z,31.77
2023-06-02T12:49:52.775Z,31.80
2023-06-02T12:50:51.976Z,31.81
2023-06-02T12:51:52.047Z,31.87
2023-06-02T12:52:52.094Z,31.87
2023-06-02T12:53:52.152Z,31.87